Time;durP1;ratioP1;P1;durP2;ratioP2;P2;SDS_P1;SDS_P2;PMS_P1;PMS_P2;Temp;Humidity;BMP_temperature;BMP_pressure;BME280_temperature;BME280_humidity;BME280_pressure;Samples;Min_cycle;Max_cycle;Signal;HPM_P1;HPM_P2
2021/07/21 00:01:50;;;;;;;11.93;10.33;;;23.20;53.70;;;;;;4953512;28;20191;-47
2021/07/21 00:04:15;;;;;;;12.40;9.93;;;23.20;53.90;;;;;;4954014;29;20269;-48
2021/07/21 00:06:41;;;;;;;11.53;10.40;;;23.20;54.00;;;;;;4953629;28;20455;-46
2021/07/21 00:09:07;;;;;;;11.50;10.30;;;23.10;54.00;;;;;;4953969;29;20199;-46
2021/07/21 00:14:20;;;;;;;13.40;10.63;;;23.10;54.00;;;;;;4953700;28;20199;-48
2021/07/21 00:16:54;;;;;;;12.67;9.70;;;23.00;53.80;;;;;;4953178;29;20491;-47
2021/07/21 00:22:03;;;;;;;10.83;9.40;;;23.00;53.80;;;;;;4946304;28;20853;-47
2021/07/21 00:24:29;;;;;;;10.83;9.73;;;22.90;53.90;;;;;;4934359;29;20460;-46
2021/07/21 00:26:55;;;;;;;10.47;8.90;;;22.80;54.10;;;;;;4934291;29;20200;-46
2021/07/21 00:29:20;;;;;;;10.70;9.30;;;22.70;54.10;;;;;;4934513;29;20281;-48
2021/07/21 00:31:46;;;;;;;10.17;9.03;;;22.70;54.20;;;;;;4934395;29;20200;-46
2021/07/21 00:34:12;;;;;;;13.17;9.87;;;22.60;54.20;;;;;;4934415;29;20683;-46
2021/07/21 00:36:37;;;;;;;10.93;9.60;;;22.50;54.30;;;;;;4934136;29;20323;-46
2021/07/21 00:39:04;;;;;;;11.63;9.87;;;22.50;54.40;;;;;;4934362;29;20196;-49
2021/07/21 00:41:30;;;;;;;13.07;9.57;;;22.50;54.40;;;;;;4934011;29;20196;-47
2021/07/21 00:43:55;;;;;;;13.10;9.23;;;22.40;54.60;;;;;;4934221;29;20435;-48
2021/07/21 00:46:21;;;;;;;13.77;9.80;;;22.10;55.60;;;;;;4932606;29;20796;-46
2021/07/21 00:48:47;;;;;;;13.10;9.40;;;21.80;56.50;;;;;;4953446;29;20657;-46
2021/07/21 00:51:12;;;;;;;10.60;9.20;;;21.80;56.50;;;;;;4953132;28;20200;-46
2021/07/21 00:53:38;;;;;;;11.70;9.80;;;21.90;56.10;;;;;;4953324;29;20226;-46
2021/07/21 00:56:05;;;;;;;10.50;8.97;;;22.00;55.80;;;;;;4953124;29;20772;-47
2021/07/21 00:58:31;;;;;;;13.60;10.50;;;22.00;55.40;;;;;;4953510;29;20428;-46
2021/07/21 01:00:57;;;;;;;14.97;9.70;;;22.00;55.40;;;;;;4953002;29;20438;-49
2021/07/21 01:03:23;;;;;;;12.57;10.30;;;22.10;55.30;;;;;;4953144;29;20203;-50
2021/07/21 01:05:48;;;;;;;13.30;10.53;;;22.10;55.30;;;;;;4952895;29;20427;-48
2021/07/21 01:08:14;;;;;;;12.63;10.13;;;22.10;55.50;;;;;;4953347;29;20432;-47
2021/07/21 01:11:03;;;;;;;11.43;10.23;;;22.00;55.70;;;;;;4952906;29;20196;-46
2021/07/21 01:13:38;;;;;;;10.07;9.07;;;22.00;55.60;;;;;;4940182;28;20217;-48
2021/07/21 01:16:06;;;;;;;11.53;9.50;;;22.00;55.70;;;;;;4956868;29;21021;-51
2021/07/21 01:18:48;;;;;;;13.00;10.47;;;22.00;55.80;;;;;;4956487;28;20468;-47
2021/07/21 01:21:33;;;;;;;13.00;10.17;;;22.00;55.80;;;;;;4943157;29;20432;-46
2021/07/21 01:24:11;;;;;;;11.00;9.70;;;21.90;55.80;;;;;;4937808;29;20439;-46
2021/07/21 01:26:51;;;;;;;14.93;10.20;;;21.90;55.90;;;;;;4937108;29;20820;-46
2021/07/21 01:29:21;;;;;;;13.93;9.23;;;21.90;55.90;;;;;;4937883;29;20440;-51
2021/07/21 01:31:48;;;;;;;10.63;9.53;;;21.90;55.70;;;;;;4937613;29;20432;-47
2021/07/21 01:34:15;;;;;;;11.27;10.13;;;21.90;55.70;;;;;;4937559;29;20444;-51
2021/07/21 01:36:48;;;;;;;11.00;9.80;;;21.90;55.60;;;;;;4937043;29;20632;-47
2021/07/21 01:39:16;;;;;;;12.70;10.10;;;21.90;55.60;;;;;;4936325;29;20774;-48
2021/07/21 01:41:47;;;;;;;9.93;8.90;;;21.90;55.50;;;;;;4937328;29;20939;-49
2021/07/21 01:44:23;;;;;;;11.30;10.10;;;21.80;55.60;;;;;;4937007;29;20441;-47
2021/07/21 01:46:55;;;;;;;11.27;9.63;;;21.90;55.60;;;;;;4940398;29;20498;-46
2021/07/21 01:49:23;;;;;;;11.50;9.63;;;21.90;55.50;;;;;;4956669;29;20499;-47
2021/07/21 01:51:50;;;;;;;12.07;9.40;;;21.80;55.50;;;;;;4956167;28;20441;-47
2021/07/21 01:54:18;;;;;;;11.43;8.47;;;21.80;55.60;;;;;;4956173;28;20457;-46
2021/07/21 01:56:46;;;;;;;11.97;9.50;;;21.80;55.40;;;;;;4956094;29;20483;-48
2021/07/21 01:59:14;;;;;;;9.90;8.80;;;21.70;55.30;;;;;;4956369;28;20814;-47
2021/07/21 02:01:40;;;;;;;10.10;8.77;;;21.70;55.30;;;;;;4956445;28;20431;-46
2021/07/21 02:04:09;;;;;;;12.13;9.30;;;21.70;55.40;;;;;;4956159;28;20427;-49
2021/07/21 02:06:36;;;;;;;13.50;9.20;;;21.60;55.40;;;;;;4954319;29;20459;-46
2021/07/21 02:09:05;;;;;;;10.67;8.73;;;21.60;55.50;;;;;;4956142;29;20785;-46
2021/07/21 02:11:31;;;;;;;11.27;9.50;;;21.60;55.50;;;;;;4955786;29;20502;-48
2021/07/21 02:14:02;;;;;;;11.90;10.33;;;21.60;55.50;;;;;;4955919;29;20427;-46
2021/07/21 02:16:30;;;;;;;12.20;8.17;;;21.60;55.60;;;;;;4955804;29;20522;-46
2021/07/21 02:18:58;;;;;;;12.00;9.30;;;21.50;55.60;;;;;;4955813;29;20471;-47
2021/07/21 02:21:25;;;;;;;12.43;10.33;;;21.50;55.70;;;;;;4940961;29;20484;-46
2021/07/21 02:23:52;;;;;;;12.47;10.00;;;21.50;55.70;;;;;;4936458;29;20841;-46
2021/07/21 02:26:19;;;;;;;10.17;8.60;;;21.50;55.60;;;;;;4936121;29;20499;-46
2021/07/21 02:28:46;;;;;;;14.17;9.10;;;21.40;55.50;;;;;;4936970;29;20486;-48
2021/07/21 02:31:26;;;;;;;15.77;9.50;;;21.30;55.40;;;;;;4936026;29;20500;-47
2021/07/21 02:34:02;;;;;;;12.57;10.27;;;21.30;56.00;;;;;;4936244;29;20429;-46
2021/07/21 02:36:30;;;;;;;11.27;9.67;;;21.20;55.60;;;;;;4936090;29;20495;-47
2021/07/21 02:38:56;;;;;;;11.03;9.50;;;21.20;55.80;;;;;;4936846;29;20461;-46
2021/07/21 02:41:21;;;;;;;11.20;9.77;;;21.20;55.90;;;;;;4935950;29;20469;-46
2021/07/21 02:43:48;;;;;;;10.70;8.40;;;21.20;55.90;;;;;;4936185;29;20203;-46
2021/07/21 02:46:14;;;;;;;11.30;10.07;;;21.10;55.90;;;;;;4936209;29;20279;-46
2021/07/21 02:48:43;;;;;;;11.87;10.07;;;21.10;56.50;;;;;;4954293;28;20519;-46
2021/07/21 02:51:20;;;;;;;10.03;9.00;;;21.00;56.10;;;;;;4954886;29;20200;-47
2021/07/21 02:53:56;;;;;;;11.63;8.67;;;21.00;56.20;;;;;;4955046;28;20502;-46
2021/07/21 02:56:25;;;;;;;11.00;9.63;;;21.00;56.40;;;;;;4955083;29;20491;-46
2021/07/21 02:58:57;;;;;;;10.10;9.10;;;20.90;56.40;;;;;;4953753;28;20431;-46
2021/07/21 03:01:24;;;;;;;14.70;10.20;;;20.90;56.50;;;;;;4954926;29;20431;-46
2021/07/21 03:03:51;;;;;;;12.73;8.57;;;20.90;56.40;;;;;;4955189;29;20420;-47
2021/07/21 03:06:19;;;;;;;12.40;8.37;;;21.00;56.50;;;;;;4954843;29;20457;-46
2021/07/21 03:08:48;;;;;;;12.83;8.40;;;20.90;56.30;;;;;;4955296;29;20526;-47
2021/07/21 03:11:16;;;;;;;11.80;8.67;;;21.00;56.50;;;;;;4954656;29;20967;-46
2021/07/21 03:13:47;;;;;;;8.67;7.60;;;21.00;56.50;;;;;;4954999;29;20452;-46
2021/07/21 03:16:16;;;;;;;8.80;7.90;;;21.00;56.30;;;;;;4954717;29;20487;-46
2021/07/21 03:18:46;;;;;;;11.77;8.67;;;20.90;56.40;;;;;;4954924;29;20463;-46
2021/07/21 03:21:12;;;;;;;11.67;8.30;;;20.80;56.90;;;;;;4941465;28;20428;-47
2021/07/21 03:23:38;;;;;;;10.53;8.03;;;20.80;56.80;;;;;;4950138;28;20805;-46
2021/07/21 03:26:07;;;;;;;9.57;8.27;;;20.80;56.60;;;;;;4933900;29;20895;-46
2021/07/21 03:28:36;;;;;;;10.60;7.93;;;20.80;56.60;;;;;;4935794;29;20787;-46
2021/07/21 03:31:02;;;;;;;10.37;8.20;;;20.80;56.50;;;;;;4935314;29;20474;-46
2021/07/21 03:33:29;;;;;;;10.67;9.20;;;20.70;56.40;;;;;;4935197;29;20443;-46
2021/07/21 03:36:01;;;;;;;10.47;9.27;;;20.70;56.60;;;;;;4934403;29;20520;-47
2021/07/21 03:38:28;;;;;;;9.93;8.93;;;20.70;56.60;;;;;;4935629;29;20812;-49
2021/07/21 03:40:55;;;;;;;10.33;8.70;;;20.70;56.50;;;;;;4935003;29;20429;-46
2021/07/21 03:43:22;;;;;;;19.77;9.10;;;20.60;56.50;;;;;;4935074;29;20425;-52
2021/07/21 03:45:49;;;;;;;10.83;9.70;;;20.60;56.60;;;;;;4934862;29;20951;-46
2021/07/21 03:48:17;;;;;;;9.70;8.50;;;20.60;56.50;;;;;;4949958;29;20514;-49
2021/07/21 03:50:43;;;;;;;10.97;9.17;;;20.60;56.40;;;;;;4953361;29;20431;-53
2021/07/21 03:53:09;;;;;;;12.03;10.10;;;20.60;56.50;;;;;;4952972;29;20427;-50
2021/07/21 03:55:38;;;;;;;12.23;9.10;;;20.60;56.70;;;;;;4953696;29;21024;-46
2021/07/21 03:58:05;;;;;;;14.63;9.23;;;20.60;56.80;;;;;;4954380;29;20438;-46
2021/07/21 04:00:32;;;;;;;13.33;10.03;;;20.50;56.60;;;;;;4953894;28;20432;-48
2021/07/21 04:02:59;;;;;;;12.40;9.47;;;20.50;56.50;;;;;;4953672;29;20436;-46
2021/07/21 04:05:27;;;;;;;13.40;9.00;;;20.50;56.80;;;;;;4953669;29;20434;-47
2021/07/21 04:07:54;;;;;;;13.13;9.13;;;20.50;57.10;;;;;;4954265;29;20424;-51
2021/07/21 04:10:21;;;;;;;13.23;9.43;;;20.40;57.20;;;;;;4951453;29;20455;-46
2021/07/21 04:12:51;;;;;;;11.73;9.47;;;20.50;57.30;;;;;;4954000;28;20428;-47
2021/07/21 04:15:21;;;;;;;11.07;9.27;;;20.40;57.50;;;;;;4953398;28;20586;-50
2021/07/21 04:17:49;;;;;;;11.73;8.60;;;20.40;57.60;;;;;;4952490;28;20459;-46
2021/07/21 04:20:15;;;;;;;12.90;9.53;;;20.40;57.70;;;;;;4947912;28;20465;-50
2021/07/21 04:22:41;;;;;;;11.20;9.97;;;20.40;57.70;;;;;;4935041;29;20420;-46
2021/07/21 04:25:10;;;;;;;11.47;9.33;;;20.50;57.60;;;;;;4934779;29;20443;-50
2021/07/21 04:27:38;;;;;;;10.90;9.57;;;20.50;57.50;;;;;;4934321;29;20439;-46
2021/07/21 04:30:05;;;;;;;13.57;8.70;;;20.40;57.80;;;;;;4934914;29;20428;-46
2021/07/21 04:32:32;;;;;;;11.67;10.47;;;20.40;57.90;;;;;;4933629;29;20486;-46
2021/07/21 04:34:57;;;;;;;13.70;10.10;;;20.50;57.80;;;;;;4934390;29;20913;-47
2021/07/21 04:37:24;;;;;;;12.43;9.40;;;20.20;58.30;;;;;;4934220;29;20424;-46
2021/07/21 04:39:52;;;;;;;12.70;9.87;;;20.00;59.00;;;;;;4934626;29;20200;-46
2021/07/21 04:42:18;;;;;;;11.90;9.70;;;19.90;59.50;;;;;;4933343;29;20916;-46
2021/07/21 04:44:45;;;;;;;11.63;9.23;;;20.00;59.50;;;;;;4933071;29;20456;-50
2021/07/21 04:47:12;;;;;;;12.57;9.30;;;20.10;59.10;;;;;;4939686;29;20451;-46
2021/07/21 04:49:41;;;;;;;12.53;9.20;;;20.30;58.80;;;;;;4953359;28;20434;-51
2021/07/21 04:52:07;;;;;;;11.77;9.70;;;20.30;58.70;;;;;;4952491;29;20431;-49
2021/07/21 04:54:33;;;;;;;11.47;9.23;;;20.10;58.90;;;;;;4953686;29;20903;-48
2021/07/21 04:56:59;;;;;;;11.43;9.33;;;20.10;59.10;;;;;;4952814;29;20491;-46
2021/07/21 04:59:26;;;;;;;12.10;9.00;;;19.90;59.70;;;;;;4953607;29;20430;-51
2021/07/21 05:01:52;;;;;;;15.77;10.77;;;19.80;60.60;;;;;;4952859;28;20567;-47
2021/07/21 05:04:17;;;;;;;12.60;9.87;;;19.50;61.20;;;;;;4953261;29;20986;-48
2021/07/21 05:06:46;;;;;;;11.07;9.73;;;19.50;62.10;;;;;;4952859;28;20274;-49
2021/07/21 05:09:13;;;;;;;11.93;10.57;;;19.60;61.40;;;;;;4953289;28;20192;-50
2021/07/21 05:11:39;;;;;;;13.70;9.97;;;19.80;61.00;;;;;;4951420;29;20479;-46
2021/07/21 05:14:05;;;;;;;16.73;10.90;;;19.90;60.50;;;;;;4953073;28;21199;-46
2021/07/21 05:16:32;;;;;;;17.37;10.40;;;20.10;60.10;;;;;;4952798;28;20487;-46
2021/07/21 05:18:58;;;;;;;13.00;11.17;;;20.30;59.80;;;;;;4953476;29;20471;-46
2021/07/21 05:21:24;;;;;;;14.13;9.90;;;20.40;59.40;;;;;;4937817;28;20437;-46
2021/07/21 05:23:50;;;;;;;12.33;9.20;;;20.50;59.40;;;;;;4933821;29;20435;-46
2021/07/21 05:26:16;;;;;;;14.50;10.67;;;20.50;59.20;;;;;;4933897;29;20928;-47
2021/07/21 05:28:42;;;;;;;13.50;10.37;;;20.60;59.20;;;;;;4934508;29;20523;-46
2021/07/21 05:31:08;;;;;;;11.20;9.83;;;20.70;59.10;;;;;;4933720;29;20264;-47
2021/07/21 05:33:34;;;;;;;14.50;10.70;;;20.80;59.10;;;;;;4933867;29;20197;-46
2021/07/21 05:36:01;;;;;;;11.80;10.03;;;20.80;58.80;;;;;;4933518;29;20491;-47
2021/07/21 05:38:27;;;;;;;13.60;10.13;;;20.90;58.80;;;;;;4932297;29;20424;-46
2021/07/21 05:40:53;;;;;;;12.27;10.40;;;21.00;58.60;;;;;;4933538;29;20432;-46
2021/07/21 05:43:18;;;;;;;12.20;10.70;;;21.20;58.50;;;;;;4933761;29;20561;-46
2021/07/21 05:45:44;;;;;;;11.27;9.87;;;21.20;58.40;;;;;;4933350;29;20591;-47
2021/07/21 05:48:10;;;;;;;21.30;10.10;;;21.30;58.50;;;;;;4947993;29;20200;-46
2021/07/21 05:50:36;;;;;;;12.60;10.20;;;21.30;58.90;;;;;;4952706;29;20196;-47
2021/07/21 05:53:02;;;;;;;14.57;9.97;;;21.40;58.80;;;;;;4952573;29;20439;-47
2021/07/21 05:55:27;;;;;;;13.80;11.87;;;21.60;58.60;;;;;;4952325;29;20314;-47
2021/07/21 05:57:53;;;;;;;13.23;10.90;;;21.70;58.40;;;;;;4952916;28;20420;-46
2021/07/21 06:00:19;;;;;;;12.83;10.30;;;21.80;58.40;;;;;;4954937;28;20189;-51
2021/07/21 06:02:44;;;;;;;11.97;10.80;;;21.90;58.20;;;;;;4956427;29;20267;-50
2021/07/21 06:05:11;;;;;;;14.00;11.13;;;21.90;57.90;;;;;;4954607;29;20274;-49
2021/07/21 06:07:37;;;;;;;11.13;9.97;;;21.90;57.70;;;;;;4956123;29;20192;-49
2021/07/21 06:10:04;;;;;;;12.53;9.90;;;22.00;57.70;;;;;;4956267;28;20780;-51
2021/07/21 06:12:29;;;;;;;12.43;11.13;;;22.10;57.70;;;;;;4955777;29;20432;-46
2021/07/21 06:14:55;;;;;;;12.47;10.33;;;22.20;57.40;;;;;;4956187;28;20428;-51
2021/07/21 06:17:21;;;;;;;15.77;10.90;;;22.30;57.10;;;;;;4955593;29;20232;-51
2021/07/21 06:19:47;;;;;;;12.60;11.30;;;22.40;56.80;;;;;;4954331;29;20589;-52
2021/07/21 06:22:14;;;;;;;16.03;11.23;;;22.50;56.70;;;;;;4936192;29;20575;-46
2021/07/21 06:24:39;;;;;;;17.80;11.83;;;22.50;56.70;;;;;;4936778;29;20801;-51
2021/07/21 06:27:05;;;;;;;14.10;10.40;;;22.60;57.20;;;;;;4936407;29;20447;-50
2021/07/21 06:29:31;;;;;;;13.20;10.60;;;22.70;56.70;;;;;;4936109;29;20205;-47
2021/07/21 06:31:58;;;;;;;14.50;10.50;;;22.80;56.30;;;;;;4935115;29;20444;-51
2021/07/21 06:34:24;;;;;;;11.20;9.37;;;22.90;56.20;;;;;;4936682;29;20236;-51
2021/07/21 06:36:49;;;;;;;13.00;10.40;;;23.00;55.50;;;;;;4936325;29;20516;-47
2021/07/21 06:39:15;;;;;;;13.57;10.87;;;23.20;55.00;;;;;;4936678;29;20843;-53
2021/07/21 06:41:41;;;;;;;14.57;9.07;;;23.30;54.80;;;;;;4936285;29;20189;-49
2021/07/21 06:44:06;;;;;;;12.57;10.07;;;23.40;54.20;;;;;;4935959;29;20944;-47
2021/07/21 06:46:32;;;;;;;13.27;10.00;;;23.50;53.70;;;;;;4936934;29;20197;-48
2021/07/21 06:48:58;;;;;;;13.10;10.00;;;23.60;53.40;;;;;;4955540;29;20259;-47
2021/07/21 06:51:24;;;;;;;12.87;9.57;;;23.70;53.10;;;;;;4955069;29;20192;-49
2021/07/21 06:53:50;;;;;;;11.80;9.70;;;23.80;53.10;;;;;;4955131;29;20247;-47
2021/07/21 06:56:16;;;;;;;11.73;10.53;;;23.70;52.50;;;;;;4953423;29;20335;-51
2021/07/21 06:58:42;;;;;;;11.27;10.07;;;23.40;52.60;;;;;;4955526;28;20519;-48
2021/07/21 07:01:07;;;;;;;13.60;10.23;;;23.40;53.10;;;;;;4955120;29;20203;-49
2021/07/21 07:03:34;;;;;;;12.00;9.30;;;23.60;53.60;;;;;;4954794;29;20535;-50
2021/07/21 07:06:01;;;;;;;10.70;9.57;;;23.80;52.80;;;;;;4954850;29;20199;-48
2021/07/21 07:08:27;;;;;;;10.40;9.33;;;23.80;52.50;;;;;;4955363;29;20428;-51
2021/07/21 07:10:53;;;;;;;15.47;10.23;;;24.00;52.40;;;;;;4953955;28;20435;-51
2021/07/21 07:13:19;;;;;;;13.93;10.40;;;24.30;52.20;;;;;;4954450;29;20203;-51
2021/07/21 07:15:44;;;;;;;14.00;10.23;;;24.50;52.30;;;;;;4954594;29;20491;-51
2021/07/21 07:18:14;;;;;;;10.43;9.00;;;24.70;51.60;;;;;;4955105;28;20235;-52
2021/07/21 07:20:45;;;;;;;14.27;9.93;;;24.80;51.50;;;;;;4945586;28;20223;-51
2021/07/21 07:23:11;;;;;;;10.77;9.20;;;25.10;51.30;;;;;;4933692;29;20429;-47
2021/07/21 07:25:39;;;;;;;15.80;9.33;;;25.20;51.50;;;;;;4935333;29;20432;-53
2021/07/21 07:28:05;;;;;;;12.17;10.40;;;25.40;50.90;;;;;;4935747;29;20436;-50
2021/07/21 07:30:31;;;;;;;12.57;9.57;;;25.60;51.40;;;;;;4935174;29;20448;-52
2021/07/21 07:32:56;;;;;;;14.47;9.53;;;25.90;50.10;;;;;;4935107;29;20444;-51
2021/07/21 07:35:22;;;;;;;15.03;9.90;;;26.10;49.10;;;;;;4935067;29;20228;-52
2021/07/21 07:37:48;;;;;;;11.80;9.33;;;26.20;49.30;;;;;;4935531;29;20208;-52
2021/07/21 07:40:14;;;;;;;12.67;10.30;;;26.30;49.50;;;;;;4935227;29;20276;-51
2021/07/21 07:42:39;;;;;;;13.17;9.90;;;26.40;49.20;;;;;;4935094;29;20307;-49
2021/07/21 07:45:06;;;;;;;12.67;9.80;;;26.50;48.70;;;;;;4935572;29;20520;-50
2021/07/21 07:47:33;;;;;;;12.93;11.00;;;26.40;48.30;;;;;;4943635;29;20196;-50
2021/07/21 07:50:06;;;;;;;11.27;10.07;;;26.30;48.40;;;;;;4953012;29;20438;-50
2021/07/21 07:52:32;;;;;;;10.70;9.60;;;26.40;49.00;;;;;;4953284;29;20523;-53
2021/07/21 07:54:58;;;;;;;12.43;10.10;;;26.60;48.40;;;;;;4954394;29;20828;-46
2021/07/21 07:57:23;;;;;;;13.47;9.73;;;26.80;48.00;;;;;;4953758;29;20432;-49
2021/07/21 07:59:49;;;;;;;10.47;9.40;;;26.80;48.40;;;;;;4954287;29;20214;-51
2021/07/21 08:02:15;;;;;;;9.43;8.50;;;26.90;47.90;;;;;;4953333;29;20196;-50
2021/07/21 08:04:40;;;;;;;10.90;9.00;;;27.10;48.70;;;;;;4954559;29;20561;-49
2021/07/21 08:07:06;;;;;;;11.70;9.53;;;27.10;47.40;;;;;;4953892;28;20242;-46
2021/07/21 08:09:31;;;;;;;10.73;9.63;;;27.20;47.30;;;;;;4954021;29;20223;-46
2021/07/21 08:11:59;;;;;;;11.13;9.30;;;27.30;47.50;;;;;;4953188;29;20200;-46
2021/07/21 08:14:25;;;;;;;15.60;9.13;;;27.40;48.00;;;;;;4954171;29;20203;-46
2021/07/21 08:16:52;;;;;;;12.87;9.67;;;27.50;47.00;;;;;;4951722;29;20486;-47
2021/07/21 08:19:19;;;;;;;11.20;9.80;;;27.50;46.30;;;;;;4953768;28;20464;-48
2021/07/21 08:21:46;;;;;;;10.63;9.53;;;27.50;46.80;;;;;;4935348;29;20535;-50
2021/07/21 08:24:12;;;;;;;9.33;8.43;;;27.70;47.60;;;;;;4935070;29;20440;-47
2021/07/21 08:26:37;;;;;;;13.17;8.50;;;27.90;46.70;;;;;;4934403;29;20436;-46
2021/07/21 08:29:04;;;;;;;11.13;9.30;;;28.00;46.10;;;;;;4934830;29;20424;-47
2021/07/21 08:31:31;;;;;;;9.60;8.30;;;28.20;45.30;;;;;;4933843;29;20300;-49
2021/07/21 08:34:00;;;;;;;12.17;9.90;;;28.30;44.80;;;;;;4934515;29;20427;-53
2021/07/21 08:36:30;;;;;;;14.33;8.87;;;28.20;46.10;;;;;;4934257;29;20488;-51
2021/07/21 08:38:56;;;;;;;11.03;9.20;;;28.50;46.30;;;;;;4934784;29;20425;-53
2021/07/21 08:41:22;;;;;;;9.57;8.33;;;28.80;46.30;;;;;;4933855;29;20465;-48
2021/07/21 08:43:48;;;;;;;9.00;7.73;;;29.00;45.90;;;;;;4932658;29;20204;-51
2021/07/21 08:46:14;;;;;;;9.73;8.83;;;29.30;43.80;;;;;;4934065;29;20421;-52
2021/07/21 08:48:40;;;;;;;9.97;9.07;;;29.40;44.60;;;;;;4952490;29;20200;-52
2021/07/21 08:51:10;;;;;;;12.50;8.80;;;29.60;44.40;;;;;;4952998;29;20455;-48
2021/07/21 08:53:37;;;;;;;10.33;8.83;;;29.70;42.60;;;;;;4952915;29;20927;-53
2021/07/21 08:56:03;;;;;;;10.23;8.87;;;29.70;42.80;;;;;;4953111;29;20541;-49
2021/07/21 08:58:29;;;;;;;9.47;8.53;;;29.70;42.80;;;;;;4953489;28;20444;-50
2021/07/21 09:00:54;;;;;;;9.37;8.47;;;29.90;43.30;;;;;;4953100;29;20434;-52
2021/07/21 09:03:21;;;;;;;9.80;8.90;;;30.00;44.30;;;;;;4952948;29;20270;-52
2021/07/21 09:05:50;;;;;;;8.63;7.83;;;30.20;41.40;;;;;;4952942;29;20739;-53
2021/07/21 09:08:16;;;;;;;12.13;8.77;;;30.40;41.30;;;;;;4952786;28;20991;-49
2021/07/21 09:10:44;;;;;;;10.13;7.83;;;30.50;40.80;;;;;;4951854;29;20515;-51
2021/07/21 09:13:11;;;;;;;9.23;8.30;;;30.70;40.60;;;;;;4953124;29;20813;-52
2021/07/21 09:15:37;;;;;;;9.77;8.70;;;30.80;41.70;;;;;;4952861;29;20525;-50
2021/07/21 09:18:08;;;;;;;9.63;8.20;;;30.90;40.50;;;;;;4952971;29;20554;-51
2021/07/21 09:20:37;;;;;;;10.57;9.10;;;31.10;40.80;;;;;;4944678;29;20216;-52
2021/07/21 09:23:04;;;;;;;10.77;8.60;;;31.20;39.50;;;;;;4933887;29;20436;-52
2021/07/21 09:25:31;;;;;;;8.60;7.73;;;31.50;39.10;;;;;;4933703;29;20975;-51
2021/07/21 09:27:59;;;;;;;11.40;8.43;;;31.60;39.90;;;;;;4934086;29;20429;-53
2021/07/21 09:30:31;;;;;;;9.10;8.20;;;31.60;39.70;;;;;;4933519;29;20503;-51
2021/07/21 09:33:00;;;;;;;8.70;7.80;;;31.70;37.70;;;;;;4933727;29;20698;-53
2021/07/21 09:35:41;;;;;;;9.17;8.27;;;31.70;37.20;;;;;;4934950;29;20813;-53
2021/07/21 09:38:21;;;;;;;9.33;8.43;;;32.00;36.50;;;;;;4937625;29;20696;-49
2021/07/21 09:40:49;;;;;;;8.37;7.60;;;32.10;36.90;;;;;;4937217;29;20486;-52
2021/07/21 09:43:17;;;;;;;9.27;8.37;;;32.10;37.80;;;;;;4937500;29;20435;-54
2021/07/21 09:45:44;;;;;;;9.47;7.83;;;32.20;36.60;;;;;;4937234;29;20439;-52
2021/07/21 09:48:11;;;;;;;8.53;7.80;;;32.40;37.20;;;;;;4951878;29;20475;-50
2021/07/21 09:50:40;;;;;;;8.90;8.03;;;32.60;36.00;;;;;;4956240;29;20438;-51
2021/07/21 09:53:09;;;;;;;8.73;7.93;;;32.60;36.60;;;;;;4956358;29;20440;-53
2021/07/21 09:55:35;;;;;;;9.50;8.60;;;32.60;36.30;;;;;;4956002;29;20495;-52
2021/07/21 09:58:04;;;;;;;9.70;8.87;;;32.80;37.20;;;;;;4956550;28;20450;-51
2021/07/21 10:00:39;;;;;;;9.00;8.20;;;32.90;37.20;;;;;;4956099;28;20471;-53
2021/07/21 10:03:26;;;;;;;9.60;8.60;;;33.20;35.80;;;;;;4954352;29;20514;-52
2021/07/21 10:05:55;;;;;;;9.13;8.23;;;33.40;34.40;;;;;;4943445;29;20436;-53
2021/07/21 10:08:30;;;;;;;8.70;7.90;;;33.50;34.00;;;;;;4956357;29;20452;-53
2021/07/21 10:10:57;;;;;;;8.97;8.17;;;33.70;34.60;;;;;;4955852;29;20439;-52
2021/07/21 10:13:23;;;;;;;9.10;8.20;;;33.80;34.70;;;;;;4955854;28;20935;-51
2021/07/21 10:15:54;;;;;;;8.97;8.20;;;33.80;35.00;;;;;;4955906;28;20490;-53
2021/07/21 10:18:20;;;;;;;9.23;8.40;;;33.80;33.10;;;;;;4956181;29;20848;-51
2021/07/21 10:20:46;;;;;;;7.97;7.20;;;33.90;33.50;;;;;;4946003;29;20435;-52
2021/07/21 10:23:17;;;;;;;8.93;8.20;;;34.10;34.10;;;;;;4936892;29;20540;-52
2021/07/21 10:25:43;;;;;;;11.30;8.97;;;34.20;34.90;;;;;;4936714;29;20448;-52
2021/07/21 10:28:10;;;;;;;9.33;8.43;;;34.40;34.20;;;;;;4935139;29;20515;-53
2021/07/21 10:30:37;;;;;;;11.10;9.13;;;34.50;32.50;;;;;;4936197;29;20440;-52
2021/07/21 10:33:04;;;;;;;9.90;8.20;;;34.40;31.40;;;;;;4936557;29;20443;-53
2021/07/21 10:35:30;;;;;;;9.47;8.57;;;34.20;31.70;;;;;;4936043;29;20566;-53
2021/07/21 10:37:56;;;;;;;9.43;7.90;;;34.50;32.00;;;;;;4936978;29;20440;-53
2021/07/21 10:40:25;;;;;;;10.20;9.17;;;34.60;31.70;;;;;;4936643;29;20519;-53
2021/07/21 10:42:54;;;;;;;10.03;9.13;;;34.70;31.10;;;;;;4936315;29;20992;-49
2021/07/21 10:45:27;;;;;;;10.90;7.80;;;34.70;30.50;;;;;;4935350;29;20838;-48
2021/07/21 10:48:01;;;;;;;12.27;8.90;;;34.70;32.20;;;;;;4947944;29;20431;-50
2021/07/21 10:59:20;;;;;;;9.43;8.53;;;35.10;31.90;;;;;;4955782;29;20487;-50
2021/07/21 11:01:48;;;;;;;11.70;9.30;;;35.30;32.50;;;;;;4954566;29;20932;-48
2021/07/21 11:04:14;;;;;;;10.57;8.90;;;35.40;31.90;;;;;;4955760;29;20419;-47
2021/07/21 11:06:42;;;;;;;10.03;8.87;;;35.50;31.10;;;;;;4954599;28;20416;-48
2021/07/21 11:09:19;;;;;;;10.27;8.73;;;35.60;29.90;;;;;;4955500;29;20223;-51
2021/07/21 11:11:46;;;;;;;9.20;8.30;;;35.70;29.40;;;;;;4954428;29;20883;-53
2021/07/21 11:14:23;;;;;;;9.93;8.93;;;35.70;30.00;;;;;;4955353;29;20441;-52
2021/07/21 11:16:51;;;;;;;11.73;8.33;;;35.70;30.30;;;;;;4954276;28;20856;-52
2021/07/21 11:19:26;;;;;;;12.00;9.27;;;35.80;29.60;;;;;;4954898;28;20478;-52
2021/07/21 11:22:05;;;;;;;9.97;9.07;;;35.90;29.50;;;;;;4934210;29;20522;-52
2021/07/21 11:25:09;;;;;;;9.53;8.73;;;35.90;29.70;;;;;;4935840;29;20436;-52
2021/07/21 11:27:52;;;;;;;10.60;8.50;;;35.70;29.10;;;;;;4935118;29;20439;-52
2021/07/21 11:30:34;;;;;;;10.63;9.37;;;35.80;29.70;;;;;;4935445;29;20483;-53
2021/07/21 11:33:37;;;;;;;10.07;9.17;;;35.90;31.90;;;;;;4935402;29;20444;-53
2021/07/21 11:36:03;;;;;;;10.07;9.07;;;36.00;31.20;;;;;;4934647;29;20534;-52
2021/07/21 11:38:53;;;;;;;10.73;9.83;;;36.10;29.70;;;;;;4935779;29;20917;-48
2021/07/21 11:41:50;;;;;;;11.20;10.10;;;36.20;29.60;;;;;;4934694;29;20566;-51
2021/07/21 11:44:22;;;;;;;10.77;9.77;;;36.30;28.50;;;;;;4935326;29;20471;-49
2021/07/21 11:46:49;;;;;;;10.70;9.40;;;36.30;29.00;;;;;;4937745;29;20801;-49
2021/07/21 11:49:21;;;;;;;10.60;9.53;;;36.30;28.60;;;;;;4953033;29;20431;-50
2021/07/21 11:51:58;;;;;;;11.47;10.47;;;36.30;28.30;;;;;;4953799;28;20470;-49
2021/07/21 11:54:37;;;;;;;10.03;9.13;;;36.20;29.00;;;;;;4954261;28;20444;-48
2021/07/21 11:57:05;;;;;;;9.23;8.30;;;36.30;29.70;;;;;;4953379;28;20577;-53
2021/07/21 11:59:36;;;;;;;10.57;9.47;;;36.20;31.30;;;;;;4954561;29;20463;-50
2021/07/21 12:02:07;;;;;;;17.57;10.30;;;36.20;30.00;;;;;;4953254;28;20454;-48
2021/07/21 12:04:33;;;;;;;11.47;10.33;;;36.30;29.00;;;;;;4954454;29;20436;-48
2021/07/21 12:06:59;;;;;;;10.60;9.60;;;36.40;28.90;;;;;;4953809;29;20799;-48
2021/07/21 12:09:28;;;;;;;12.70;10.07;;;36.50;31.00;;;;;;4954363;29;20847;-48
2021/07/21 12:11:56;;;;;;;13.43;10.87;;;36.40;30.50;;;;;;4953623;29;20772;-47
2021/07/21 12:14:23;;;;;;;12.13;9.80;;;36.50;29.20;;;;;;4952663;29;20428;-48
2021/07/21 12:16:49;;;;;;;10.80;9.70;;;36.40;28.70;;;;;;4953585;29;20495;-48
2021/07/21 12:19:14;;;;;;;10.53;9.47;;;36.50;29.70;;;;;;4954023;29;20469;-50
2021/07/21 12:21:41;;;;;;;10.87;9.77;;;36.50;30.10;;;;;;4935997;29;20197;-48
2021/07/21 12:24:07;;;;;;;11.20;10.10;;;36.60;30.10;;;;;;4934874;29;20671;-48
2021/07/21 12:26:43;;;;;;;11.00;9.93;;;36.40;30.90;;;;;;4934288;29;20429;-48
2021/07/21 12:29:10;;;;;;;10.50;9.50;;;36.70;29.20;;;;;;4935106;29;20557;-48
2021/07/21 12:31:36;;;;;;;11.70;10.20;;;36.80;29.10;;;;;;4933994;29;20421;-47
2021/07/21 12:34:17;;;;;;;10.27;9.27;;;37.00;29.00;;;;;;4934562;29;20468;-49
2021/07/21 12:36:50;;;;;;;10.20;9.40;;;36.90;29.50;;;;;;4934158;29;20257;-48
2021/07/21 12:39:24;;;;;;;10.57;9.57;;;36.70;30.60;;;;;;4934779;29;20463;-48
2021/07/21 12:41:50;;;;;;;11.30;9.60;;;36.80;29.90;;;;;;4932415;29;20460;-45
2021/07/21 12:44:17;;;;;;;11.27;9.80;;;36.90;29.70;;;;;;4934670;29;20448;-47
2021/07/21 12:46:44;;;;;;;11.43;10.40;;;37.00;28.00;;;;;;4936301;29;20432;-46
2021/07/21 12:49:10;;;;;;;9.50;8.47;;;36.90;28.20;;;;;;4953932;29;20502;-45
2021/07/21 12:51:37;;;;;;;9.80;8.57;;;37.00;28.30;;;;;;4952939;29;20522;-46
2021/07/21 12:54:04;;;;;;;9.87;9.00;;;37.00;28.00;;;;;;4953322;29;20207;-46
2021/07/21 12:56:30;;;;;;;9.50;8.70;;;37.10;28.80;;;;;;4952842;28;20500;-47